Aviation Digital Data Service (ADDS)

Output produced by METARs form (0219 UTC 16 July 2019)
found at http://www.aviationweather.gov/metar/data/
 
METAR text: LEGT 152100Z 36007KT CAVOK 31/05 Q1014
Conditions at: LEGT (MADRID/GETAFE (A, ES) observed 2100 UTC 15 July 2019
Temperature: 31.0°C (88°F)
Dewpoint: 5.0°C (41°F) [RH = 19%]
Pressure (altimeter): 29.94 inches Hg (1014.0 mb)
Winds: from the N (360 degrees) at 8 MPH (7 knots; 3.6 m/s)
Visibility: 6 or more miles (10+ km)
Ceiling: ceiling and visibility are OK
Clouds: unknown
Weather: no significant weather observed at this time

METAR text: LEGT 152000Z 34008KT CAVOK 32/04 Q1013
Conditions at: LEGT (MADRID/GETAFE (A, ES) observed 2000 UTC 15 July 2019
Temperature: 32.0°C (90°F)
Dewpoint: 4.0°C (39°F) [RH = 17%]
Pressure (altimeter): 29.91 inches Hg (1013.0 mb)
Winds: from the NNW (340 degrees) at 9 MPH (8 knots; 4.1 m/s)
Visibility: 6 or more miles (10+ km)
Ceiling: ceiling and visibility are OK
Clouds: unknown
Weather: no significant weather observed at this time

METAR text: LEGT 151900Z 34010KT CAVOK 34/04 Q1013
Conditions at: LEGT (MADRID/GETAFE (A, ES) observed 1900 UTC 15 July 2019
Temperature: 34.0°C (93°F)
Dewpoint: 4.0°C (39°F) [RH = 15%]
Pressure (altimeter): 29.91 inches Hg (1013.0 mb)
Winds: from the NNW (340 degrees) at 12 MPH (10 knots; 5.1 m/s)
Visibility: 6 or more miles (10+ km)
Ceiling: ceiling and visibility are OK
Clouds: unknown
Weather: no significant weather observed at this time

METAR text: LEGT 151800Z 34012KT 310V010 CAVOK 35/04 Q1012
Conditions at: LEGT (MADRID/GETAFE (A, ES) observed 1800 UTC 15 July 2019
Temperature: 35.0°C (95°F)
Dewpoint: 4.0°C (39°F) [RH = 14%]
Pressure (altimeter): 29.88 inches Hg (1012.0 mb)
Winds: from the NNW (340 degrees) at 14 MPH (12 knots; 6.2 m/s)
Visibility: 6 or more miles (10+ km)
Ceiling: ceiling and visibility are OK
Clouds: unknown
Weather: no significant weather observed at this time

METAR text: LEGT 151700Z 31012G22KT 280V360 CAVOK 36/04 Q1012
Conditions at: LEGT (MADRID/GETAFE (A, ES) observed 1700 UTC 15 July 2019
Temperature: 36.0°C (97°F)
Dewpoint: 4.0°C (39°F) [RH = 14%]
Pressure (altimeter): 29.88 inches Hg (1012.0 mb)
Winds: from the NW (310 degrees) at 14 MPH (12 knots; 6.2 m/s)
gusting to 25 MPH (22 knots; 11.3 m/s)
Visibility: 6 or more miles (10+ km)
Ceiling: ceiling and visibility are OK
Clouds: unknown
Weather: no significant weather observed at this time

METAR text: LEGT 151600Z 29008G19KT 240V350 CAVOK 36/06 Q1012
Conditions at: LEGT (MADRID/GETAFE (A, ES) observed 1600 UTC 15 July 2019
Temperature: 36.0°C (97°F)
Dewpoint: 6.0°C (43°F) [RH = 16%]
Pressure (altimeter): 29.88 inches Hg (1012.0 mb)
Winds: from the WNW (290 degrees) at 9 MPH (8 knots; 4.1 m/s)
gusting to 22 MPH (19 knots; 9.8 m/s)
Visibility: 6 or more miles (10+ km)
Ceiling: ceiling and visibility are OK
Clouds: unknown
Weather: no significant weather observed at this time

METAR text: LEGT 151500Z VRB05KT CAVOK 36/10 Q1013
Conditions at: LEGT (MADRID/GETAFE (A, ES) observed 1500 UTC 15 July 2019
Temperature: 36.0°C (97°F)
Dewpoint: 10.0°C (50°F) [RH = 21%]
Pressure (altimeter): 29.91 inches Hg (1013.0 mb)
Winds: variable direction winds at 6 MPH (5 knots; 2.6 m/s)
Visibility: 6 or more miles (10+ km)
Ceiling: ceiling and visibility are OK
Clouds: unknown
Weather: no significant weather observed at this time

METAR text: LEGT 151400Z VRB07G17KT CAVOK 35/10 Q1013
Conditions at: LEGT (MADRID/GETAFE (A, ES) observed 1400 UTC 15 July 2019
Temperature: 35.0°C (95°F)
Dewpoint: 10.0°C (50°F) [RH = 22%]
Pressure (altimeter): 29.91 inches Hg (1013.0 mb)
Winds: variable direction winds at 8 MPH (7 knots; 3.6 m/s)
gusting to 20 MPH (17 knots; 8.7 m/s)
Visibility: 6 or more miles (10+ km)
Ceiling: ceiling and visibility are OK
Clouds: unknown
Weather: no significant weather observed at this time

METAR text: LEGT 151300Z VRB04KT 9999 FEW045 34/10 Q1014
Conditions at: LEGT (MADRID/GETAFE (A, ES) observed 1300 UTC 15 July 2019
Temperature: 34.0°C (93°F)
Dewpoint: 10.0°C (50°F) [RH = 23%]
Pressure (altimeter): 29.94 inches Hg (1014.0 mb)
Winds: variable direction winds at 5 MPH (4 knots; 2.1 m/s)
Visibility: 6 or more miles (10+ km)
Ceiling: at least 12,000 feet AGL
Clouds: few clouds at 4500 feet AGL
Weather: no significant weather observed at this time

METAR text: LEGT 151200Z 24007KT 160V320 9999 FEW045 33/11 Q1014
Conditions at: LEGT (MADRID/GETAFE (A, ES) observed 1200 UTC 15 July 2019
Temperature: 33.0°C (91°F)
Dewpoint: 11.0°C (52°F) [RH = 26%]
Pressure (altimeter): 29.94 inches Hg (1014.0 mb)
Winds: from the WSW (240 degrees) at 8 MPH (7 knots; 3.6 m/s)
Visibility: 6 or more miles (10+ km)
Ceiling: at least 12,000 feet AGL
Clouds: few clouds at 4500 feet AGL
Weather: no significant weather observed at this time

METAR text: LEGT 151100Z 25004KT CAVOK 31/10 Q1015
Conditions at: LEGT (MADRID/GETAFE (A, ES) observed 1100 UTC 15 July 2019
Temperature: 31.0°C (88°F)
Dewpoint: 10.0°C (50°F) [RH = 27%]
Pressure (altimeter): 29.97 inches Hg (1015.0 mb)
Winds: from the WSW (250 degrees) at 5 MPH (4 knots; 2.1 m/s)
Visibility: 6 or more miles (10+ km)
Ceiling: ceiling and visibility are OK
Clouds: unknown
Weather: no significant weather observed at this time

METAR text: LEGT 151000Z 09004KT 020V160 CAVOK 28/09 Q1015
Conditions at: LEGT (MADRID/GETAFE (A, ES) observed 1000 UTC 15 July 2019
Temperature: 28.0°C (82°F)
Dewpoint: 9.0°C (48°F) [RH = 30%]
Pressure (altimeter): 29.97 inches Hg (1015.0 mb)
Winds: from the E (90 degrees) at 5 MPH (4 knots; 2.1 m/s)
Visibility: 6 or more miles (10+ km)
Ceiling: ceiling and visibility are OK
Clouds: unknown
Weather: no significant weather observed at this time

METAR text: LEGT 150900Z VRB04KT CAVOK 26/09 Q1016
Conditions at: LEGT (MADRID/GETAFE (A, ES) observed 0900 UTC 15 July 2019
Temperature: 26.0°C (79°F)
Dewpoint: 9.0°C (48°F) [RH = 34%]
Pressure (altimeter): 30.00 inches Hg (1016.0 mb)
Winds: variable direction winds at 5 MPH (4 knots; 2.1 m/s)
Visibility: 6 or more miles (10+ km)
Ceiling: ceiling and visibility are OK
Clouds: unknown
Weather: no significant weather observed at this time

METAR text: LEGT 150800Z 04006KT 010V090 CAVOK 24/09 Q1016
Conditions at: LEGT (MADRID/GETAFE (A, ES) observed 0800 UTC 15 July 2019
Temperature: 24.0°C (75°F)
Dewpoint: 9.0°C (48°F) [RH = 38%]
Pressure (altimeter): 30.00 inches Hg (1016.0 mb)
Winds: from the NE (40 degrees) at 7 MPH (6 knots; 3.1 m/s)
Visibility: 6 or more miles (10+ km)
Ceiling: ceiling and visibility are OK
Clouds: unknown
Weather: no significant weather observed at this time

METAR text: LEGT 150700Z 04008KT 010V080 CAVOK 22/09 Q1016
Conditions at: LEGT (MADRID/GETAFE (A, ES) observed 0700 UTC 15 July 2019
Temperature: 22.0°C (72°F)
Dewpoint: 9.0°C (48°F) [RH = 43%]
Pressure (altimeter): 30.00 inches Hg (1016.0 mb)
Winds: from the NE (40 degrees) at 9 MPH (8 knots; 4.1 m/s)
Visibility: 6 or more miles (10+ km)
Ceiling: ceiling and visibility are OK
Clouds: unknown
Weather: no significant weather observed at this time

METAR text: LEGT 150600Z 04008KT CAVOK 22/09 Q1015
Conditions at: LEGT (MADRID/GETAFE (A, ES) observed 0600 UTC 15 July 2019
Temperature: 22.0°C (72°F)
Dewpoint: 9.0°C (48°F) [RH = 43%]
Pressure (altimeter): 29.97 inches Hg (1015.0 mb)
Winds: from the NE (40 degrees) at 9 MPH (8 knots; 4.1 m/s)
Visibility: 6 or more miles (10+ km)
Ceiling: ceiling and visibility are OK
Clouds: unknown
Weather: no significant weather observed at this time

METAR text: LEGT 150500Z 05007KT CAVOK 21/11 Q1015
Conditions at: LEGT (MADRID/GETAFE (A, ES) observed 0500 UTC 15 July 2019
Temperature: 21.0°C (70°F)
Dewpoint: 11.0°C (52°F) [RH = 53%]
Pressure (altimeter): 29.97 inches Hg (1015.0 mb)
Winds: from the NE (50 degrees) at 8 MPH (7 knots; 3.6 m/s)
Visibility: 6 or more miles (10+ km)
Ceiling: ceiling and visibility are OK
Clouds: unknown
Weather: no significant weather observed at this time

METAR text: LEGT 141800Z 30008KT 250V010 CAVOK 34/10 Q1013
Conditions at: LEGT (MADRID/GETAFE (A, ES) observed 1800 UTC 14 July 2019
Temperature: 34.0°C (93°F)
Dewpoint: 10.0°C (50°F) [RH = 23%]
Pressure (altimeter): 29.91 inches Hg (1013.0 mb)
Winds: from the WNW (300 degrees) at 9 MPH (8 knots; 4.1 m/s)
Visibility: 6 or more miles (10+ km)
Ceiling: ceiling and visibility are OK
Clouds: unknown
Weather: no significant weather observed at this time

METAR text: LEGT 141700Z 34003KT 290V030 CAVOK 33/10 Q1013
Conditions at: LEGT (MADRID/GETAFE (A, ES) observed 1700 UTC 14 July 2019
Temperature: 33.0°C (91°F)
Dewpoint: 10.0°C (50°F) [RH = 24%]
Pressure (altimeter): 29.91 inches Hg (1013.0 mb)
Winds: from the NNW (340 degrees) at 3 MPH (3 knots; 1.5 m/s)
Visibility: 6 or more miles (10+ km)
Ceiling: ceiling and visibility are OK
Clouds: unknown
Weather: no significant weather observed at this time

METAR text: LEGT 141600Z 29005KT 240V360 CAVOK 33/11 Q1013
Conditions at: LEGT (MADRID/GETAFE (A, ES) observed 1600 UTC 14 July 2019
Temperature: 33.0°C (91°F)
Dewpoint: 11.0°C (52°F) [RH = 26%]
Pressure (altimeter): 29.91 inches Hg (1013.0 mb)
Winds: from the WNW (290 degrees) at 6 MPH (5 knots; 2.6 m/s)
Visibility: 6 or more miles (10+ km)
Ceiling: ceiling and visibility are OK
Clouds: unknown
Weather: no significant weather observed at this time

METAR text: LEGT 141500Z 22004KT 9999 FEW049 33/12 Q1013
Conditions at: LEGT (MADRID/GETAFE (A, ES) observed 1500 UTC 14 July 2019
Temperature: 33.0°C (91°F)
Dewpoint: 12.0°C (54°F) [RH = 28%]
Pressure (altimeter): 29.91 inches Hg (1013.0 mb)
Winds: from the SW (220 degrees) at 5 MPH (4 knots; 2.1 m/s)
Visibility: 6 or more miles (10+ km)
Ceiling: at least 12,000 feet AGL
Clouds: few clouds at 4900 feet AGL
Weather: no significant weather observed at this time

Forecast for: LEGT (MADRID/GETAFE (A, ES)
Text: TAF LEGT 151700Z 1518/1603 02011KT CAVOK
Forecast period: 1800 UTC 15 July 2019 to 0300 UTC 16 July 2019
Forecast type: FROM: standard forecast or significant change
Winds: from the NNE (20 degrees) at 13 MPH (11 knots; 5.7 m/s)
Visibility: 6 or more miles 10+ km)
Ceiling: unknown
Clouds: missing
Weather: NSW  (no significant weather)